Mount Vernon, WA

6:51 PM PST on March 04, 2015 (GMT -0800)
Maddox Creek | Change Station
CLOSE
Current Station
Personal Weather Station
Location: Mount Vernon, WA
Elevation: 404 ft
Nearby Weather Stations

Elev 404 ft 48.41 °N, 122.30 °W | Updated 40 seconds ago

Clear
Clear
43.0 °F
Feels Like 43 °F
N
0.0
Wind Variable Wind from WNW
Gusts 0.0 mph

Today
High -- | Low -- °F
--% Chance of Precip.
Yesterday
High -- | Low -- °F
Precip. -- in
6:45 AM 5:57 PM
Full, 100% visible
Pressure 30.29 in
Visibility 10.0 miles
Clouds Clear
Windchill 43 °F
Dew Point 26 °F
Humidity 51%
Rainfall 0.00 in
Snow Depth Not available.
UV 0 out of 12
Pollen 5.30 out of 12
Air Quality Not available.
Flu Activity Not available.
METAR KBVS 050215Z AUTO 00000KT 10SM CLR 08/00 A3029 RMK A01 P000

More Conditions Fewer Conditions

Pressure 30.29 in
Visibility 10.0 miles
Clouds Clear
Windchill 43 °F
Dew Point 26 °F
Humidity 51%
Rainfall 0.00 in
Snow Depth Not available.
UV 0 out of 12
Pollen 5.30 out of 12
Air Quality Not available.
Flu Activity Not available.
METAR KBVS 050215Z AUTO 00000KT 10SM CLR 08/00 A3029 RMK A01 P000

More Conditions Fewer Conditions

10-Day Weather Forecast

Almanac

Astronomy

Mar. 04, 2015 Rise Set
Actual Time
Civil Twilight
Nautical Twilight
Astronomical Twilight
Moon
Length of Visible Light
Length of Day
Tomorrow will be .
, % of the Moon is Illuminated

Today's Extremes

State Highs State Lows

Community

WunderPhotos

Upload Photos

1,802,634 photos uploaded!

WunderBlogs® & News

Nearby

Air Quality

  Air Quality AQ Index Pollutant
Not available.

Snow Depth

Station Depth Elevation

Earthquake Activity

City Distance Mag. Time & Date
Minimum magnitude displayed is 2.5.

Coastal Water Temperatures

Place Temperature

Nearby Weather Stations